Portada
METAR-TAF:

METAR-TAF

Aeropuertos :

Emmen, Suiza

latitud: 47-05-32N, longitud: 8-18-16E, altitud: 426 m

Observación

El informe se hizo hace 31 minutos, a las 08:20 UTC
Viento 3 kt del este, variando entre norte y este
Temperatura 1°C
Humedad 93%
Presión 1024 hPa
Visibilidad: 3700 m
Escasas nubes a una altura de 2800 ft
Cielo nuboso a una altura de 3400 ft
chaparrones de lluvia, neblina

METAR: LSME 070820Z AUTO 08003KT 360V100 3700NDV -SHRA BR FEW028 BKN034 01/00 Q1024 RMK

Hora: 09:51 (08:51 UTC)


TAF: falta

Observaciones y pronósticos meteorológicos de más de 4000 aeropuertos (mensajes METAR y TAF).

Los puntos amarillos y rojos representan las estaciones disponibles.

Ponga el ratón en el punto deseado para ver el nombre de la estación.

Haga clic para ver las observaciones y los pronósticos meteorológicos.

Para cambiar el mapa : haga clic en los botones verdes con una cruz de color negro para hacer un zoom, en el botón verde con un guión para alejar o en las flechas verdes para mapas adyacentes.


METAR-TAF: